createdAt,value
2017-02-03T00:00:44.588Z,24.01
2017-02-03T00:01:53.626Z,24.02
2017-02-03T00:03:03.072Z,23.96
2017-02-03T00:04:12.092Z,24.02
2017-02-03T00:05:21.119Z,24.02
2017-02-03T00:06:30.171Z,23.98
2017-02-03T00:07:39.195Z,23.99
2017-02-03T00:08:48.218Z,24.01
2017-02-03T00:09:57.240Z,23.93
2017-02-03T00:11:06.268Z,23.96
2017-02-03T00:12:16.151Z,23.98
2017-02-03T00:13:25.154Z,23.96
2017-02-03T00:14:34.578Z,23.93
2017-02-03T00:15:43.569Z,23.96
2017-02-03T00:16:52.546Z,23.88
2017-02-03T00:18:01.532Z,23.9
2017-02-03T00:19:10.523Z,23.96
2017-02-03T00:20:19.506Z,23.94
2017-02-03T00:21:28.923Z,23.91
2017-02-03T00:22:37.955Z,23.94
2017-02-03T00:23:47.008Z,23.86
2017-02-03T00:24:56.004Z,23.86
2017-02-03T00:26:05.011Z,23.71
2017-02-03T00:27:14.414Z,23.69
2017-02-03T00:28:23.409Z,23.75
2017-02-03T00:29:32.405Z,23.72
2017-02-03T00:30:41.392Z,23.79
2017-02-03T00:31:50.428Z,23.69
2017-02-03T00:32:59.424Z,23.73
2017-02-03T00:34:08.416Z,23.76
2017-02-03T00:35:17.400Z,23.8
2017-02-03T00:36:26.424Z,23.64
2017-02-03T00:37:35.414Z,23.53
2017-02-03T00:38:44.402Z,23.49
2017-02-03T00:39:53.400Z,23.43
2017-02-03T00:41:02.382Z,23.38
2017-02-03T00:42:11.384Z,23.24
2017-02-03T00:43:20.374Z,23.28
2017-02-03T00:44:29.377Z,23.31
2017-02-03T00:45:38.362Z,23.35
2017-02-03T00:46:47.358Z,23.21
2017-02-03T00:47:56.355Z,23.24
2017-02-03T00:49:05.340Z,23.19
2017-02-03T00:50:14.325Z,23.23
2017-02-03T00:51:23.313Z,23.35
2017-02-03T00:52:32.304Z,23.34
2017-02-03T00:53:41.308Z,23.28
2017-02-03T00:54:50.290Z,23.19
2017-02-03T00:55:59.281Z,23.23
2017-02-03T00:57:08.265Z,23.25
2017-02-03T00:58:17.261Z,23.24
2017-02-03T00:59:26.250Z,23.24
2017-02-03T01:00:35.659Z,23.13
2017-02-03T01:01:44.650Z,23.06
2017-02-03T01:02:53.633Z,23.09
2017-02-03T01:04:02.674Z,23.09
2017-02-03T01:05:11.660Z,23.05
2017-02-03T01:06:21.068Z,23.09
2017-02-03T01:07:30.192Z,23.12
2017-02-03T01:08:39.585Z,23.13
2017-02-03T01:09:48.588Z,23.13
2017-02-03T01:10:57.574Z,23.12
2017-02-03T01:12:06.998Z,23.05
2017-02-03T01:13:15.980Z,23.05
2017-02-03T01:14:24.972Z,23
2017-02-03T01:15:33.966Z,23.05
2017-02-03T01:16:42.966Z,23.09
2017-02-03T01:17:51.961Z,23.09
2017-02-03T01:19:00.951Z,23.08
2017-02-03T01:20:09.941Z,22.98
2017-02-03T01:21:18.937Z,22.98
2017-02-03T01:22:27.940Z,23
2017-02-03T01:23:36.930Z,22.94
2017-02-03T01:24:45.911Z,22.97
2017-02-03T01:25:54.906Z,22.87
2017-02-03T01:27:03.890Z,22.94
2017-02-03T01:28:12.893Z,22.91
2017-02-03T01:29:22.307Z,22.87
2017-02-03T01:30:31.291Z,22.94
2017-02-03T01:31:40.269Z,23
2017-02-03T01:32:49.269Z,22.9
2017-02-03T01:33:58.251Z,22.93
2017-02-03T01:35:07.239Z,22.86
2017-02-03T01:36:16.263Z,22.81
2017-02-03T01:37:25.674Z,22.87
2017-02-03T01:38:34.656Z,22.83
2017-02-03T01:39:43.657Z,22.91
2017-02-03T01:40:52.664Z,22.9
2017-02-03T01:42:01.671Z,22.86
2017-02-03T01:43:10.663Z,22.82
2017-02-03T01:44:19.688Z,22.86
2017-02-03T01:45:28.674Z,22.86
2017-02-03T01:46:38.089Z,22.79
2017-02-03T01:47:47.506Z,22.75
2017-02-03T01:48:56.483Z,22.78
2017-02-03T01:50:05.488Z,22.75
2017-02-03T01:51:14.503Z,22.76
2017-02-03T01:52:23.538Z,22.75
2017-02-03T01:53:32.559Z,22.69
2017-02-03T01:54:41.554Z,22.73
2017-02-03T01:55:50.548Z,22.72
2017-02-03T01:56:59.535Z,22.63
2017-02-03T01:58:08.520Z,22.71
2017-02-03T01:59:17.516Z,22.64
2017-02-03T02:00:26.506Z,22.56
2017-02-03T02:01:35.501Z,22.58
2017-02-03T02:02:44.948Z,22.63
2017-02-03T02:03:53.933Z,22.6
2017-02-03T02:05:02.929Z,22.6
2017-02-03T02:06:11.926Z,22.57
2017-02-03T02:07:20.920Z,22.57
2017-02-03T02:08:29.911Z,22.6
2017-02-03T02:09:39.308Z,22.58
2017-02-03T02:10:48.306Z,22.57
2017-02-03T02:11:57.298Z,22.56
2017-02-03T02:13:06.302Z,22.54
2017-02-03T02:14:15.688Z,22.5
2017-02-03T02:15:24.718Z,22.43
2017-02-03T02:16:33.699Z,22.49
2017-02-03T02:17:42.689Z,22.49
2017-02-03T02:18:51.682Z,22.46
2017-02-03T02:20:00.674Z,22.41
2017-02-03T02:21:09.657Z,22.39
2017-02-03T02:22:18.642Z,22.41
2017-02-03T02:23:27.647Z,22.39
2017-02-03T02:24:36.634Z,22.43
2017-02-03T02:25:45.649Z,22.46
2017-02-03T02:26:54.639Z,22.41
2017-02-03T02:28:03.660Z,22.38
2017-02-03T02:29:12.658Z,22.39
2017-02-03T02:30:21.659Z,22.38
2017-02-03T02:31:30.651Z,22.39
2017-02-03T02:32:39.644Z,22.39
2017-02-03T02:33:48.637Z,22.39
2017-02-03T02:34:57.640Z,22.39
2017-02-03T02:36:06.641Z,22.34
2017-02-03T02:37:15.635Z,22.45
2017-02-03T02:38:24.622Z,22.36
2017-02-03T02:39:33.611Z,22.35
2017-02-03T02:40:42.603Z,22.32
2017-02-03T02:41:51.608Z,22.27
2017-02-03T02:43:00.592Z,22.27
2017-02-03T02:44:09.638Z,22.31
2017-02-03T02:45:19.076Z,22.38
2017-02-03T02:46:28.056Z,22.24
2017-02-03T02:47:37.048Z,22.16
2017-02-03T02:48:46.036Z,22.23
2017-02-03T02:49:55.068Z,22.39
2017-02-03T02:51:04.060Z,22.2
2017-02-03T02:52:13.055Z,22.21
2017-02-03T02:53:22.028Z,22.13
2017-02-03T02:54:31.440Z,22.26
2017-02-03T02:55:40.435Z,22.2
2017-02-03T02:56:49.462Z,22.16
2017-02-03T02:57:58.463Z,22.16
2017-02-03T02:59:07.447Z,22.21
2017-02-03T03:00:16.461Z,22.17
2017-02-03T03:01:25.450Z,22.13
2017-02-03T03:02:34.439Z,22.11
2017-02-03T03:03:43.433Z,22.16
2017-02-03T03:04:52.440Z,22.21
2017-02-03T03:06:01.432Z,22.16
2017-02-03T03:07:10.417Z,22.16
2017-02-03T03:08:19.443Z,22.17
2017-02-03T03:09:28.427Z,22.21
2017-02-03T03:10:37.833Z,22.21
2017-02-03T03:11:46.816Z,22.13
2017-02-03T03:12:56.280Z,21.99
2017-02-03T03:14:05.277Z,22.08
2017-02-03T03:15:14.263Z,21.99
2017-02-03T03:16:23.251Z,22.01
2017-02-03T03:17:32.244Z,22.04
2017-02-03T03:18:41.239Z,22.08
2017-02-03T03:19:50.225Z,22.05
2017-02-03T03:20:59.216Z,22.11
2017-02-03T03:22:08.190Z,22.11
2017-02-03T03:23:17.594Z,22.14
2017-02-03T03:24:26.572Z,22.05
2017-02-03T03:25:35.571Z,22.05
2017-02-03T03:26:44.568Z,22.04
2017-02-03T03:27:53.543Z,22.04
2017-02-03T03:29:02.559Z,22.02
2017-02-03T03:30:11.557Z,22.13
2017-02-03T03:31:20.959Z,22.06
2017-02-03T03:32:29.961Z,21.99
2017-02-03T03:33:38.961Z,22.06
2017-02-03T03:34:47.950Z,22.05
2017-02-03T03:35:56.931Z,22.04
2017-02-03T03:37:05.936Z,21.99
2017-02-03T03:38:14.933Z,21.99
2017-02-03T03:39:23.942Z,22.04
2017-02-03T03:40:32.927Z,21.95
2017-02-03T03:41:41.925Z,21.98
2017-02-03T03:42:50.915Z,21.96
2017-02-03T03:43:59.905Z,22.01
2017-02-03T03:45:08.910Z,22.01
2017-02-03T03:46:17.899Z,21.94
2017-02-03T03:47:26.890Z,21.96
2017-02-03T03:48:35.872Z,21.9
2017-02-03T03:49:45.271Z,21.89
2017-02-03T03:50:54.251Z,21.96
2017-02-03T03:52:03.238Z,21.86
2017-02-03T03:53:12.234Z,21.95
2017-02-03T03:54:21.210Z,21.92
2017-02-03T03:55:30.205Z,21.95
2017-02-03T03:56:39.207Z,21.92
2017-02-03T03:57:48.195Z,21.9
2017-02-03T03:58:57.188Z,21.94
2017-02-03T04:00:06.184Z,21.95
2017-02-03T04:01:15.164Z,21.92
2017-02-03T04:02:24.195Z,21.9
2017-02-03T04:03:33.179Z,21.92
2017-02-03T04:04:42.578Z,21.89
2017-02-03T04:05:51.572Z,21.9
2017-02-03T04:07:00.563Z,21.9
2017-02-03T04:08:09.552Z,21.86
2017-02-03T04:09:18.955Z,21.86
2017-02-03T04:10:27.958Z,21.89
2017-02-03T04:11:36.951Z,21.95
2017-02-03T04:12:45.941Z,21.9
2017-02-03T04:13:54.928Z,21.92
2017-02-03T04:15:03.916Z,21.89
2017-02-03T04:16:12.901Z,21.85
2017-02-03T04:17:21.909Z,21.83
2017-02-03T04:18:30.909Z,21.82
2017-02-03T04:19:39.872Z,21.86
2017-02-03T04:20:48.866Z,21.82
2017-02-03T04:21:57.865Z,21.83
2017-02-03T04:23:06.857Z,21.82
2017-02-03T04:24:15.849Z,21.79
2017-02-03T04:25:24.830Z,21.76
2017-02-03T04:26:34.224Z,21.79
2017-02-03T04:27:43.211Z,21.85
2017-02-03T04:28:52.212Z,21.85
2017-02-03T04:30:01.190Z,21.83
2017-02-03T04:31:10.190Z,21.86
2017-02-03T04:32:19.169Z,21.8
2017-02-03T04:33:28.576Z,21.85
2017-02-03T04:34:37.571Z,21.76
2017-02-03T04:35:46.576Z,21.82
2017-02-03T04:36:55.557Z,21.85
2017-02-03T04:38:04.554Z,21.83
2017-02-03T04:39:13.539Z,21.82
2017-02-03T04:40:22.536Z,21.78
2017-02-03T04:41:31.534Z,21.86
2017-02-03T04:42:40.548Z,21.86
2017-02-03T04:43:49.536Z,21.79
2017-02-03T04:44:58.528Z,21.76
2017-02-03T04:46:07.522Z,21.78
2017-02-03T04:47:16.512Z,21.82
2017-02-03T04:48:25.503Z,21.8
2017-02-03T04:49:35.344Z,21.76
2017-02-03T04:50:44.341Z,21.83
2017-02-03T04:51:53.328Z,21.79
2017-02-03T04:53:02.310Z,21.85
2017-02-03T04:54:11.309Z,21.78
2017-02-03T04:55:20.298Z,21.78
2017-02-03T04:56:29.293Z,21.76
2017-02-03T04:57:38.280Z,21.68
2017-02-03T04:58:47.264Z,21.76
2017-02-03T04:59:56.265Z,21.82
2017-02-03T05:01:05.660Z,21.79
2017-02-03T05:02:14.663Z,21.76
2017-02-03T05:03:23.657Z,21.75
2017-02-03T05:04:32.635Z,21.73
2017-02-03T05:05:41.626Z,21.79
2017-02-03T05:06:50.618Z,21.73
2017-02-03T05:08:29.311Z,21.75
2017-02-03T05:09:38.296Z,21.82
2017-02-03T05:10:47.281Z,21.7
2017-02-03T05:11:56.285Z,21.78
2017-02-03T05:13:05.277Z,21.8
2017-02-03T05:14:14.319Z,21.79
2017-02-03T05:15:23.510Z,21.82
2017-02-03T05:16:32.513Z,21.73
2017-02-03T05:17:41.520Z,21.75
2017-02-03T05:18:50.525Z,21.82
2017-02-03T05:19:59.549Z,21.79
2017-02-03T05:21:08.534Z,21.73
2017-02-03T05:22:17.525Z,21.75
2017-02-03T05:23:26.512Z,21.76
2017-02-03T05:24:35.506Z,21.75
2017-02-03T05:25:44.491Z,21.76
2017-02-03T05:26:53.492Z,21.8
2017-02-03T05:28:02.467Z,21.85
2017-02-03T05:29:11.455Z,21.86
2017-02-03T05:30:20.455Z,21.85
2017-02-03T05:31:29.450Z,21.83
2017-02-03T05:32:38.450Z,21.75
2017-02-03T05:33:47.440Z,21.75
2017-02-03T05:34:56.425Z,21.7
2017-02-03T05:36:05.409Z,21.82
2017-02-03T05:37:14.400Z,21.79
2017-02-03T05:38:23.390Z,21.76
2017-02-03T05:39:32.376Z,21.78
2017-02-03T05:40:41.382Z,21.76
2017-02-03T05:41:50.367Z,21.79
2017-02-03T05:42:59.364Z,21.73
2017-02-03T05:44:09.187Z,21.71
2017-02-03T05:45:18.201Z,21.78
2017-02-03T05:46:27.197Z,21.7
2017-02-03T05:47:36.183Z,21.71
2017-02-03T05:48:45.175Z,21.75
2017-02-03T05:49:54.154Z,21.68
2017-02-03T05:51:03.151Z,21.67
2017-02-03T05:52:12.143Z,21.61
2017-02-03T05:53:21.142Z,21.73
2017-02-03T05:54:30.125Z,21.65
2017-02-03T05:55:39.523Z,21.65
2017-02-03T05:56:48.501Z,21.61
2017-02-03T05:57:57.497Z,21.67
2017-02-03T05:59:06.493Z,21.67
2017-02-03T06:00:15.478Z,21.68
2017-02-03T06:01:24.890Z,21.65
2017-02-03T06:02:33.876Z,21.67
2017-02-03T06:03:42.864Z,21.68
2017-02-03T06:04:51.857Z,21.7
2017-02-03T06:06:00.842Z,21.68
2017-02-03T06:07:09.827Z,21.7
2017-02-03T06:08:18.813Z,21.68
2017-02-03T06:09:27.813Z,21.67
2017-02-03T06:10:36.799Z,21.65
2017-02-03T06:11:45.830Z,21.65
2017-02-03T06:12:54.819Z,21.71
2017-02-03T06:14:04.212Z,21.78
2017-02-03T06:15:13.212Z,21.78
2017-02-03T06:16:22.205Z,21.68
2017-02-03T06:17:31.199Z,21.58
2017-02-03T06:18:40.219Z,21.71
2017-02-03T06:19:49.219Z,21.61
2017-02-03T06:20:58.205Z,21.73
2017-02-03T06:22:07.198Z,21.63
2017-02-03T06:23:16.183Z,21.64
2017-02-03T06:24:25.161Z,21.63
2017-02-03T06:25:34.155Z,21.64
2017-02-03T06:26:43.150Z,21.67
2017-02-03T06:27:52.143Z,21.67
2017-02-03T06:29:01.129Z,21.75
2017-02-03T06:30:10.120Z,21.65
2017-02-03T06:31:19.137Z,21.7
2017-02-03T06:32:28.134Z,21.7
2017-02-03T06:33:37.131Z,21.67
2017-02-03T06:34:46.109Z,21.63
2017-02-03T06:35:55.106Z,21.6
2017-02-03T06:37:04.096Z,21.61
2017-02-03T06:38:13.090Z,21.61
2017-02-03T06:39:22.087Z,21.68
2017-02-03T06:40:31.091Z,21.68
2017-02-03T06:41:40.079Z,21.67
2017-02-03T06:42:49.066Z,21.68
2017-02-03T06:43:58.093Z,21.6
2017-02-03T06:45:07.084Z,21.7
2017-02-03T06:46:16.101Z,21.7
2017-02-03T06:47:25.093Z,21.71
2017-02-03T06:48:34.207Z,21.65
2017-02-03T06:49:43.588Z,21.67
2017-02-03T06:50:52.589Z,21.71
2017-02-03T06:52:01.566Z,21.65
2017-02-03T06:53:10.567Z,21.68
2017-02-03T06:54:19.984Z,21.6
2017-02-03T06:55:28.961Z,21.73
2017-02-03T06:56:37.940Z,21.65
2017-02-03T06:57:46.934Z,21.68
2017-02-03T06:58:56.325Z,21.64
2017-02-03T07:00:05.321Z,21.7
2017-02-03T07:01:14.738Z,21.61
2017-02-03T07:02:24.135Z,21.67
2017-02-03T07:03:33.150Z,21.65
2017-02-03T07:04:42.148Z,21.73
2017-02-03T07:05:51.132Z,21.7
2017-02-03T07:07:00.128Z,21.67
2017-02-03T07:08:09.118Z,21.63
2017-02-03T07:09:18.111Z,21.73
2017-02-03T07:10:27.104Z,21.75
2017-02-03T07:11:36.126Z,21.67
2017-02-03T07:12:45.122Z,21.71
2017-02-03T07:13:54.111Z,21.64
2017-02-03T07:15:03.099Z,21.65
2017-02-03T07:16:12.085Z,21.73
2017-02-03T07:17:21.115Z,21.64
2017-02-03T07:18:30.109Z,21.63
2017-02-03T07:19:39.094Z,21.7
2017-02-03T07:20:48.083Z,21.63
2017-02-03T07:21:57.086Z,21.7
2017-02-03T07:23:06.080Z,21.73
2017-02-03T07:24:15.094Z,21.75
2017-02-03T07:25:24.519Z,21.75
2017-02-03T07:26:33.519Z,21.79
2017-02-03T07:27:42.944Z,21.7
2017-02-03T07:28:51.941Z,21.71
2017-02-03T07:30:00.933Z,21.78
2017-02-03T07:31:09.917Z,21.8
2017-02-03T07:32:18.901Z,21.73
2017-02-03T07:33:27.909Z,21.73
2017-02-03T07:34:36.894Z,21.79
2017-02-03T07:35:46.304Z,21.68
2017-02-03T07:36:55.282Z,21.8
2017-02-03T07:38:04.265Z,21.71
2017-02-03T07:39:13.269Z,21.75
2017-02-03T07:40:22.261Z,21.82
2017-02-03T07:41:31.283Z,21.82
2017-02-03T07:42:40.283Z,21.79
2017-02-03T07:43:49.669Z,21.79
2017-02-03T07:44:58.645Z,21.76
2017-02-03T07:46:07.646Z,21.71
2017-02-03T07:47:16.634Z,21.79
2017-02-03T07:48:25.631Z,21.76
2017-02-03T07:49:34.628Z,21.76
2017-02-03T07:50:43.607Z,21.76
2017-02-03T07:51:52.604Z,21.76
2017-02-03T07:53:01.583Z,21.82
2017-02-03T07:54:10.572Z,21.76
2017-02-03T07:55:19.565Z,21.73
2017-02-03T07:56:28.565Z,21.71
2017-02-03T07:57:37.954Z,21.79
2017-02-03T07:58:46.954Z,21.8
2017-02-03T07:59:55.932Z,21.86
2017-02-03T08:01:04.924Z,21.82
2017-02-03T08:02:13.913Z,21.83
2017-02-03T08:03:22.913Z,21.82
2017-02-03T08:04:31.903Z,21.83
2017-02-03T08:05:40.894Z,21.89
2017-02-03T08:06:49.880Z,21.9
2017-02-03T08:07:58.869Z,21.86
2017-02-03T08:09:07.873Z,21.82
2017-02-03T08:10:16.866Z,21.83
2017-02-03T08:11:25.859Z,21.86
2017-02-03T08:12:34.857Z,21.82
2017-02-03T08:13:43.838Z,21.86
2017-02-03T08:14:52.832Z,21.98
2017-02-03T08:16:01.820Z,21.92
2017-02-03T08:17:10.893Z,22.57
2017-02-03T08:18:20.371Z,23.05
2017-02-03T08:19:29.361Z,23.36
2017-02-03T08:20:38.347Z,23.66
2017-02-03T08:21:47.326Z,23.65
2017-02-03T08:22:56.323Z,23.99
2017-02-03T08:24:05.348Z,24.09
2017-02-03T08:25:14.343Z,24.17
2017-02-03T08:26:23.333Z,24.2
2017-02-03T08:27:32.329Z,23.69
2017-02-03T08:28:41.308Z,23.49
2017-02-03T08:29:50.334Z,23.25
2017-02-03T08:30:59.368Z,23.06
2017-02-03T08:32:08.353Z,23.06
2017-02-03T08:33:17.339Z,23.05
2017-02-03T08:34:26.346Z,22.98
2017-02-03T08:35:35.758Z,22.98
2017-02-03T08:36:44.761Z,22.98
2017-02-03T08:37:53.758Z,22.97
2017-02-03T08:39:02.746Z,22.94
2017-02-03T08:40:11.734Z,22.98
2017-02-03T08:41:20.770Z,23
2017-02-03T08:42:30.183Z,22.97
2017-02-03T08:43:39.184Z,22.93
2017-02-03T08:44:48.587Z,22.93
2017-02-03T08:45:57.583Z,22.93
2017-02-03T08:47:06.629Z,22.94
2017-02-03T08:48:15.621Z,22.9
2017-02-03T08:49:24.612Z,22.82
2017-02-03T08:50:33.609Z,22.9
2017-02-03T08:51:42.612Z,22.83
2017-02-03T08:52:51.593Z,22.86
2017-02-03T08:54:00.587Z,22.87
2017-02-03T08:55:09.577Z,22.97
2017-02-03T08:56:18.569Z,23
2017-02-03T08:57:27.550Z,22.97
2017-02-03T08:58:36.557Z,22.97
2017-02-03T08:59:45.959Z,22.94
2017-02-03T09:00:54.950Z,22.91
2017-02-03T09:02:03.946Z,22.82
2017-02-03T09:03:13.356Z,22.94
2017-02-03T09:04:22.351Z,22.96
2017-02-03T09:05:31.350Z,22.91
2017-02-03T09:06:40.754Z,22.87
2017-02-03T09:07:49.745Z,22.91
2017-02-03T09:08:58.894Z,22.9
2017-02-03T09:10:07.891Z,22.87
2017-02-03T09:11:16.880Z,22.93
2017-02-03T09:12:25.875Z,22.93
2017-02-03T09:13:34.857Z,22.93
2017-02-03T09:14:43.880Z,22.88
2017-02-03T09:15:52.881Z,22.88
2017-02-03T09:17:01.879Z,22.9
2017-02-03T09:18:10.865Z,22.91
2017-02-03T09:19:19.856Z,22.98
2017-02-03T09:20:29.267Z,22.91
2017-02-03T09:21:38.267Z,22.9
2017-02-03T09:22:47.260Z,22.87
2017-02-03T09:23:56.247Z,22.91
2017-02-03T09:25:05.647Z,22.97
2017-02-03T09:26:14.631Z,22.9
2017-02-03T09:27:23.626Z,22.96
2017-02-03T09:28:32.617Z,22.87
2017-02-03T09:29:41.611Z,22.97
2017-02-03T09:30:51.029Z,22.94
2017-02-03T09:32:00.016Z,22.91
2017-02-03T09:33:09.425Z,22.93
2017-02-03T09:34:18.410Z,22.94
2017-02-03T09:35:27.385Z,22.87
2017-02-03T09:36:36.383Z,23.01
2017-02-03T09:37:45.380Z,22.98
2017-02-03T09:38:54.381Z,22.93
2017-02-03T09:40:03.378Z,22.94
2017-02-03T09:41:12.797Z,22.91
2017-02-03T09:42:22.193Z,22.83
2017-02-03T09:43:31.184Z,22.88
2017-02-03T09:44:40.177Z,22.96
2017-02-03T09:45:49.177Z,23.01
2017-02-03T09:46:58.172Z,22.94
2017-02-03T09:48:07.164Z,22.93
2017-02-03T09:49:16.151Z,22.96
2017-02-03T09:50:25.150Z,22.98
2017-02-03T09:51:34.131Z,22.98
2017-02-03T09:52:43.133Z,22.98
2017-02-03T09:53:52.160Z,22.91
2017-02-03T09:55:01.186Z,22.97
2017-02-03T09:56:10.201Z,22.98
2017-02-03T09:57:19.190Z,23.03
2017-02-03T09:58:28.223Z,22.93
2017-02-03T09:59:37.206Z,22.98
2017-02-03T10:00:46.615Z,22.96
2017-02-03T10:01:56.030Z,22.98
2017-02-03T10:03:05.020Z,23.01
2017-02-03T10:04:14.014Z,22.97
2017-02-03T10:05:23.406Z,22.94
2017-02-03T10:06:32.410Z,23.01
2017-02-03T10:07:41.410Z,22.93
2017-02-03T10:08:50.475Z,22.97
2017-02-03T10:09:59.466Z,23.03
2017-02-03T10:11:08.460Z,22.97
2017-02-03T10:12:17.446Z,23.01
2017-02-03T10:13:26.436Z,23.01
2017-02-03T10:14:35.429Z,23.03
2017-02-03T10:15:44.852Z,23.03
2017-02-03T10:16:53.857Z,23
2017-02-03T10:18:02.840Z,22.98
2017-02-03T10:19:11.836Z,23.01
2017-02-03T10:20:20.831Z,22.96
2017-02-03T10:21:29.836Z,23.01
2017-02-03T10:22:38.819Z,23.03
2017-02-03T10:23:47.803Z,23
2017-02-03T10:24:56.797Z,23.03
2017-02-03T10:26:06.213Z,23.09
2017-02-03T10:27:15.217Z,23.08
2017-02-03T10:28:24.248Z,23.09
2017-02-03T10:29:33.236Z,23.11
2017-02-03T10:30:42.649Z,23.12
2017-02-03T10:31:51.638Z,23.11
2017-02-03T10:33:00.627Z,23.06
2017-02-03T10:34:10.031Z,23.09
2017-02-03T10:35:19.026Z,23.08
2017-02-03T10:36:28.018Z,23.08
2017-02-03T10:37:37.417Z,23.08
2017-02-03T10:38:46.414Z,23.06
2017-02-03T10:39:55.399Z,23.11
2017-02-03T10:41:04.389Z,23.13
2017-02-03T10:42:13.378Z,23.15
2017-02-03T10:43:22.368Z,23.12
2017-02-03T10:44:31.355Z,23.11
2017-02-03T10:45:40.361Z,23.06
2017-02-03T10:46:49.348Z,23.08
2017-02-03T10:47:58.761Z,23.13
2017-02-03T10:49:07.750Z,23.11
2017-02-03T10:50:16.740Z,23.11
2017-02-03T10:51:25.755Z,23.06
2017-02-03T10:52:34.748Z,23.08
2017-02-03T10:53:43.744Z,23.08
2017-02-03T10:54:52.726Z,23.09
2017-02-03T10:56:01.723Z,23.08
2017-02-03T10:57:10.705Z,23.06
2017-02-03T10:58:19.691Z,23.09
2017-02-03T10:59:28.681Z,23.03
2017-02-03T11:00:37.664Z,23.12
2017-02-03T11:01:46.658Z,23.08
2017-02-03T11:02:55.644Z,22.97
2017-02-03T11:04:04.643Z,23.05
2017-02-03T11:05:13.626Z,23.06
2017-02-03T11:06:22.621Z,23.11
2017-02-03T11:07:31.605Z,23.05
2017-02-03T11:08:40.602Z,23.16
2017-02-03T11:09:50.719Z,23.21
2017-02-03T11:10:59.705Z,23.25
2017-02-03T11:12:08.825Z,23.19
2017-02-03T11:13:17.878Z,23.28
2017-02-03T11:14:26.956Z,23.31
2017-02-03T11:15:35.942Z,23.43
2017-02-03T11:16:44.956Z,23.28
2017-02-03T11:17:54.100Z,23.39
2017-02-03T11:19:03.089Z,23.41
2017-02-03T11:20:12.424Z,23.36
2017-02-03T11:21:21.916Z,23.36
2017-02-03T11:22:30.903Z,23.25
2017-02-03T11:23:39.885Z,23.46
2017-02-03T11:24:48.913Z,23.38
2017-02-03T11:25:57.889Z,23.25
2017-02-03T11:27:06.891Z,23.28
2017-02-03T11:28:15.888Z,23.21
2017-02-03T11:29:24.863Z,23.19
2017-02-03T11:30:33.849Z,23.28
2017-02-03T11:31:42.842Z,23.27
2017-02-03T11:32:51.836Z,23.19
2017-02-03T11:34:00.828Z,23.25
2017-02-03T11:35:09.813Z,23.31
2017-02-03T11:36:18.830Z,23.19
2017-02-03T11:37:27.807Z,23.21
2017-02-03T11:38:36.802Z,23.34
2017-02-03T11:39:45.791Z,23.39
2017-02-03T11:40:54.780Z,23.36
2017-02-03T11:42:03.776Z,23.49
2017-02-03T11:43:12.763Z,23.39
2017-02-03T11:44:23.317Z,23.51
2017-02-03T11:45:32.307Z,23.46
2017-02-03T11:46:41.305Z,23.56
2017-02-03T11:47:50.298Z,23.53
2017-02-03T11:48:59.302Z,23.62
2017-02-03T11:50:08.326Z,23.61
2017-02-03T11:51:17.323Z,23.64
2017-02-03T11:52:26.722Z,23.57
2017-02-03T11:53:35.740Z,23.61
2017-02-03T11:54:44.725Z,23.68
2017-02-03T11:55:53.722Z,23.65
2017-02-03T11:57:03.536Z,23.62
2017-02-03T11:58:12.561Z,23.61
2017-02-03T11:59:21.958Z,23.68
2017-02-03T12:00:31.476Z,23.66
2017-02-03T12:01:40.465Z,23.73
2017-02-03T12:02:49.478Z,23.8
2017-02-03T12:03:58.474Z,23.73
2017-02-03T12:05:07.465Z,23.73
2017-02-03T12:06:16.871Z,23.73
2017-02-03T12:07:25.863Z,23.69
2017-02-03T12:08:35.276Z,23.75
2017-02-03T12:09:44.260Z,23.71
2017-02-03T12:10:53.242Z,23.72
2017-02-03T12:12:02.257Z,23.71
2017-02-03T12:13:12.561Z,23.71
2017-02-03T12:14:21.994Z,23.72
2017-02-03T12:15:32.888Z,23.66
2017-02-03T12:16:41.885Z,23.76
2017-02-03T12:17:51.298Z,23.75
2017-02-03T12:19:00.903Z,23.73
2017-02-03T12:20:10.319Z,23.73
2017-02-03T12:21:19.490Z,23.79
2017-02-03T12:22:28.806Z,23.88
2017-02-03T12:23:39.038Z,23.84
2017-02-03T12:24:51.419Z,23.84
2017-02-03T12:26:03.223Z,23.83
2017-02-03T12:27:16.378Z,23.87
2017-02-03T12:28:25.405Z,23.86
2017-02-03T12:29:34.401Z,23.91
2017-02-03T12:30:43.393Z,23.76
2017-02-03T12:31:52.386Z,23.9
2017-02-03T12:33:01.784Z,23.87
2017-02-03T12:34:10.769Z,23.83
2017-02-03T12:35:19.759Z,23.71
2017-02-03T12:36:28.757Z,23.73
2017-02-03T12:37:37.789Z,23.72
2017-02-03T12:38:46.790Z,23.8
2017-02-03T12:39:55.785Z,23.84
2017-02-03T12:41:05.190Z,23.87
2017-02-03T12:42:14.609Z,23.86
2017-02-03T12:43:23.605Z,23.88
2017-02-03T12:44:32.610Z,23.88
2017-02-03T12:45:41.584Z,23.79
2017-02-03T12:46:50.564Z,23.91
2017-02-03T12:47:59.567Z,23.8
2017-02-03T12:49:08.547Z,23.81
2017-02-03T12:50:17.555Z,23.9
2017-02-03T12:51:26.556Z,23.93
2017-02-03T12:52:35.535Z,23.9
2017-02-03T12:53:44.566Z,23.9
2017-02-03T12:54:53.546Z,23.9
2017-02-03T12:56:02.536Z,23.9
2017-02-03T12:57:11.543Z,23.81
2017-02-03T12:58:20.536Z,23.79
2017-02-03T12:59:29.524Z,23.93
2017-02-03T13:00:38.520Z,23.94
2017-02-03T13:01:47.504Z,23.9
2017-02-03T13:02:56.488Z,23.81
2017-02-03T13:04:05.909Z,23.81
2017-02-03T13:05:15.316Z,23.91
2017-02-03T13:06:24.289Z,23.72
2017-02-03T13:07:33.287Z,23.5
2017-02-03T13:08:42.760Z,23.51
2017-02-03T13:09:51.754Z,23.5
2017-02-03T13:11:01.563Z,23.57
2017-02-03T13:12:10.564Z,23.61
2017-02-03T13:13:19.972Z,23.65
2017-02-03T13:14:28.966Z,23.64
2017-02-03T13:15:37.957Z,23.66
2017-02-03T13:16:46.941Z,23.59
2017-02-03T13:17:55.942Z,23.64
2017-02-03T13:19:04.931Z,23.61
2017-02-03T13:20:13.929Z,23.62
2017-02-03T13:21:22.913Z,23.57
2017-02-03T13:22:31.917Z,23.57
2017-02-03T13:23:40.893Z,23.61
2017-02-03T13:24:49.888Z,23.57
2017-02-03T13:25:58.891Z,23.54
2017-02-03T13:27:07.883Z,23.54
2017-02-03T13:28:16.863Z,23.57
2017-02-03T13:29:25.852Z,23.5
2017-02-03T13:30:34.828Z,23.56
2017-02-03T13:31:43.821Z,23.56
2017-02-03T13:32:52.819Z,23.53
2017-02-03T13:34:01.809Z,23.53
2017-02-03T13:35:10.787Z,23.51
2017-02-03T13:36:19.783Z,23.53
2017-02-03T13:37:28.766Z,23.53
2017-02-03T13:38:37.769Z,23.54
2017-02-03T13:39:46.755Z,23.59
2017-02-03T13:40:55.748Z,23.51
2017-02-03T13:42:04.731Z,23.53
2017-02-03T13:43:13.727Z,23.51
2017-02-03T13:44:22.713Z,23.49
2017-02-03T13:45:31.697Z,23.51
2017-02-03T13:46:40.698Z,23.51
2017-02-03T13:47:49.688Z,23.43
2017-02-03T13:48:58.676Z,23.43
2017-02-03T13:50:07.669Z,23.39
2017-02-03T13:51:16.659Z,23.49
2017-02-03T13:52:25.703Z,23.54
2017-02-03T13:53:34.700Z,23.5
2017-02-03T13:54:43.685Z,23.46
2017-02-03T13:55:52.660Z,23.46
2017-02-03T13:57:01.654Z,23.39
2017-02-03T13:58:10.650Z,23.51
2017-02-03T13:59:19.683Z,23.46
2017-02-03T14:00:28.665Z,23.53
2017-02-03T14:01:37.647Z,23.49
2017-02-03T14:02:46.628Z,23.49
2017-02-03T14:03:55.634Z,23.56
2017-02-03T14:05:04.632Z,23.54
2017-02-03T14:06:13.618Z,23.51
2017-02-03T14:07:22.602Z,23.59
2017-02-03T14:08:31.586Z,23.56
2017-02-03T14:09:40.577Z,23.57
2017-02-03T14:10:49.566Z,23.5
2017-02-03T14:11:58.975Z,23.53
2017-02-03T14:13:07.994Z,23.57
2017-02-03T14:14:16.978Z,23.54
2017-02-03T14:15:25.963Z,23.53
2017-02-03T14:16:34.954Z,23.53
2017-02-03T14:17:43.956Z,23.49
2017-02-03T14:18:52.949Z,23.59
2017-02-03T14:20:01.926Z,23.61
2017-02-03T14:21:10.927Z,23.51
2017-02-03T14:22:19.918Z,23.53
2017-02-03T14:23:28.911Z,23.56
2017-02-03T14:24:37.894Z,23.59
2017-02-03T14:25:46.886Z,23.61
2017-02-03T14:26:55.876Z,23.54
2017-02-03T14:28:05.277Z,23.51
2017-02-03T14:29:14.273Z,23.5
2017-02-03T14:30:23.262Z,23.53
2017-02-03T14:31:32.249Z,23.54
2017-02-03T14:32:41.241Z,23.59
2017-02-03T14:33:50.229Z,23.57
2017-02-03T14:34:59.215Z,23.62
2017-02-03T14:36:08.206Z,23.54
2017-02-03T14:37:17.192Z,23.56
2017-02-03T14:38:26.589Z,23.59
2017-02-03T14:39:35.583Z,23.57
2017-02-03T14:40:44.576Z,23.57
2017-02-03T14:41:53.566Z,23.54
2017-02-03T14:43:02.557Z,23.53
2017-02-03T14:44:11.543Z,23.51
2017-02-03T14:45:20.946Z,23.49
2017-02-03T14:46:30.350Z,23.57
2017-02-03T14:47:39.336Z,23.51
2017-02-03T14:48:48.328Z,23.49
2017-02-03T14:49:57.320Z,23.51
2017-02-03T14:51:06.728Z,23.49
2017-02-03T14:52:15.714Z,23.44
2017-02-03T14:53:25.124Z,23.51